sensor_id;sensor_type;location;lat;lon;timestamp;pressure;altitude;pressure_sealevel;temperature;humidity
10064;BME280;5071;52.360;13.134;2023-06-14T00:03:55;101269.25;;;13.00;73.38
10064;BME280;5071;52.360;13.134;2023-06-14T00:08:58;101262.19;;;12.99;73.65
10064;BME280;5071;52.360;13.134;2023-06-14T00:14:01;101269.34;;;12.94;74.20
10064;BME280;5071;52.360;13.134;2023-06-14T00:19:03;101276.41;;;12.95;74.44
10064;BME280;5071;52.360;13.134;2023-06-14T00:24:07;101275.56;;;12.91;74.68
10064;BME280;5071;52.360;13.134;2023-06-14T00:29:10;101280.00;;;12.92;74.47
10064;BME280;5071;52.360;13.134;2023-06-14T00:34:13;101277.47;;;12.81;74.96
10064;BME280;5071;52.360;13.134;2023-06-14T00:39:15;101286.31;;;12.85;75.57
10064;BME280;5071;52.360;13.134;2023-06-14T00:44:20;101281.00;;;12.85;75.30
10064;BME280;5071;52.360;13.134;2023-06-14T00:49:22;101275.69;;;12.83;75.32
10064;BME280;5071;52.360;13.134;2023-06-14T00:54:24;101278.66;;;12.57;77.24
10064;BME280;5071;52.360;13.134;2023-06-14T00:59:28;101269.81;;;12.55;77.33
10064;BME280;5071;52.360;13.134;2023-06-14T01:04:30;101277.81;;;12.55;77.77
10064;BME280;5071;52.360;13.134;2023-06-14T01:09:37;101269.81;;;12.57;77.48
10064;BME280;5071;52.360;13.134;2023-06-14T01:14:46;101274.09;;;12.69;77.38
10064;BME280;5071;52.360;13.134;2023-06-14T01:19:51;101274.94;;;12.72;77.47
10064;BME280;5071;52.360;13.134;2023-06-14T01:24:54;101277.66;;;12.68;78.12
10064;BME280;5071;52.360;13.134;2023-06-14T01:29:56;101270.53;;;12.71;79.05
10064;BME280;5071;52.360;13.134;2023-06-14T01:34:58;101278.66;;;12.59;79.39
10064;BME280;5071;52.360;13.134;2023-06-14T01:40:02;101273.41;;;12.53;80.23
10064;BME280;5071;52.360;13.134;2023-06-14T01:45:07;101263.84;;;12.35;82.13
10064;BME280;5071;52.360;13.134;2023-06-14T01:50:10;101276.19;;;12.43;81.74
10064;BME280;5071;52.360;13.134;2023-06-14T01:55:13;101270.06;;;12.35;82.47
10064;BME280;5071;52.360;13.134;2023-06-14T02:00:16;101277.78;;;12.60;82.22
10064;BME280;5071;52.360;13.134;2023-06-14T02:05:18;101262.03;;;12.37;82.72
10064;BME280;5071;52.360;13.134;2023-06-14T02:10:22;101269.22;;;12.32;84.13
10064;BME280;5071;52.360;13.134;2023-06-14T02:15:24;101273.97;;;12.03;84.78
10064;BME280;5071;52.360;13.134;2023-06-14T02:20:26;101277.66;;;11.82;86.26
10064;BME280;5071;52.360;13.134;2023-06-14T02:25:29;101270.56;;;11.83;86.89
10064;BME280;5071;52.360;13.134;2023-06-14T02:30:32;101283.03;;;11.75;86.82
10064;BME280;5071;52.360;13.134;2023-06-14T02:35:34;101274.22;;;11.70;87.58
10064;BME280;5071;52.360;13.134;2023-06-14T02:40:37;101287.38;;;11.90;86.78
10064;BME280;5071;52.360;13.134;2023-06-14T02:45:39;101279.28;;;12.00;86.66
10064;BME280;5071;52.360;13.134;2023-06-14T02:50:41;101282.06;;;11.83;88.27
10064;BME280;5071;52.360;13.134;2023-06-14T02:55:45;101282.16;;;11.76;88.74
10064;BME280;5071;52.360;13.134;2023-06-14T03:00:47;101283.00;;;11.81;88.76
10064;BME280;5071;52.360;13.134;2023-06-14T03:05:50;101281.22;;;11.77;88.98
10064;BME280;5071;52.360;13.134;2023-06-14T03:10:54;101286.47;;;11.94;88.20
10064;BME280;5071;52.360;13.134;2023-06-14T03:15:56;101280.16;;;12.01;88.01
10064;BME280;5071;52.360;13.134;2023-06-14T03:20:58;101293.44;;;12.05;87.87
10064;BME280;5071;52.360;13.134;2023-06-14T03:26:02;101301.34;;;12.13;87.99
10064;BME280;5071;52.360;13.134;2023-06-14T03:31:04;101301.34;;;12.15;87.69
10064;BME280;5071;52.360;13.134;2023-06-14T03:36:06;101307.72;;;11.95;88.58
10064;BME280;5071;52.360;13.134;2023-06-14T03:41:10;101309.50;;;11.95;88.87
10064;BME280;5071;52.360;13.134;2023-06-14T03:46:12;101310.38;;;11.97;88.86
10064;BME280;5071;52.360;13.134;2023-06-14T03:51:14;101315.66;;;12.01;88.96
10064;BME280;5071;52.360;13.134;2023-06-14T03:56:17;101314.72;;;12.05;89.00
10064;BME280;5071;52.360;13.134;2023-06-14T04:01:20;101321.59;;;12.30;88.78
10064;BME280;5071;52.360;13.134;2023-06-14T04:06:22;101324.88;;;12.55;87.26
10064;BME280;5071;52.360;13.134;2023-06-14T04:11:26;101330.84;;;12.77;86.85
10064;BME280;5071;52.360;13.134;2023-06-14T04:16:28;101330.66;;;12.92;86.46
10064;BME280;5071;52.360;13.134;2023-06-14T04:21:30;101325.69;;;13.33;84.36
10064;BME280;5071;52.360;13.134;2023-06-14T04:26:33;101327.41;;;14.91;79.21
10064;BME280;5071;52.360;13.134;2023-06-14T04:31:36;101321.28;;;17.29;68.82
10064;BME280;5071;52.360;13.134;2023-06-14T04:36:37;101339.69;;;18.99;62.04
10064;BME280;5071;52.360;13.134;2023-06-14T04:41:41;101345.25;;;19.41;57.58
10064;BME280;5071;52.360;13.134;2023-06-14T04:46:43;101340.47;;;19.26;58.77
10064;BME280;5071;52.360;13.134;2023-06-14T04:51:45;101340.22;;;20.20;55.83
10064;BME280;5071;52.360;13.134;2023-06-14T04:56:49;101344.47;;;21.83;50.73
10064;BME280;5071;52.360;13.134;2023-06-14T05:01:51;101347.31;;;20.64;52.84
10064;BME280;5071;52.360;13.134;2023-06-14T05:06:54;101341.81;;;21.45;51.38
10064;BME280;5071;52.360;13.134;2023-06-14T05:11:57;101344.50;;;22.00;49.68
10064;BME280;5071;52.360;13.134;2023-06-14T05:16:59;101347.25;;;22.52;47.97
10064;BME280;5071;52.360;13.134;2023-06-14T05:22:01;101352.75;;;21.42;50.70
10064;BME280;5071;52.360;13.134;2023-06-14T05:27:04;101351.69;;;22.54;48.69
10064;BME280;5071;52.360;13.134;2023-06-14T05:32:07;101364.25;;;23.39;45.52
10064;BME280;5071;52.360;13.134;2023-06-14T05:37:09;101368.56;;;20.72;50.78
10064;BME280;5071;52.360;13.134;2023-06-14T05:42:12;101363.28;;;18.92;56.46
10064;BME280;5071;52.360;13.134;2023-06-14T05:47:14;101363.25;;;18.42;59.82
10064;BME280;5071;52.360;13.134;2023-06-14T05:52:16;101352.16;;;18.76;58.69
10064;BME280;5071;52.360;13.134;2023-06-14T05:57:19;101360.41;;;18.97;57.51
10064;BME280;5071;52.360;13.134;2023-06-14T06:02:22;101370.81;;;18.31;59.60
10064;BME280;5071;52.360;13.134;2023-06-14T06:07:24;101366.28;;;18.06;60.27
10064;BME280;5071;52.360;13.134;2023-06-14T06:12:27;101362.69;;;17.77;61.58
10064;BME280;5071;52.360;13.134;2023-06-14T06:17:30;101362.31;;;18.43;59.36
10064;BME280;5071;52.360;13.134;2023-06-14T06:22:51;101361.97;;;18.02;59.29
10064;BME280;5071;52.360;13.134;2023-06-14T06:27:55;101369.88;;;17.77;58.89
10064;BME280;5071;52.360;13.134;2023-06-14T06:32:58;101366.38;;;18.30;58.13
10064;BME280;5071;52.360;13.134;2023-06-14T06:38:00;101377.34;;;17.97;60.05
10064;BME280;5071;52.360;13.134;2023-06-14T06:43:04;101387.78;;;17.78;59.93
10064;BME280;5071;52.360;13.134;2023-06-14T06:48:06;101385.03;;;17.79;59.02
10064;BME280;5071;52.360;13.134;2023-06-14T06:53:09;101381.16;;;17.60;60.11
10064;BME280;5071;52.360;13.134;2023-06-14T06:58:13;101384.09;;;17.52;59.44
10064;BME280;5071;52.360;13.134;2023-06-14T07:03:16;101382.47;;;17.46;60.49
10064;BME280;5071;52.360;13.134;2023-06-14T07:08:18;101404.22;;;17.67;59.82
10064;BME280;5071;52.360;13.134;2023-06-14T07:13:22;101405.38;;;17.88;59.64
10064;BME280;5071;52.360;13.134;2023-06-14T07:18:24;101405.94;;;17.98;59.74
10064;BME280;5071;52.360;13.134;2023-06-14T07:23:26;101419.47;;;18.23;60.11
10064;BME280;5071;52.360;13.134;2023-06-14T07:28:30;101422.88;;;18.80;57.99
10064;BME280;5071;52.360;13.134;2023-06-14T07:33:32;101425.97;;;18.94;57.62
10064;BME280;5071;52.360;13.134;2023-06-14T07:38:35;101426.59;;;19.73;56.51
10064;BME280;5071;52.360;13.134;2023-06-14T07:43:38;101421.66;;;20.71;53.75
10064;BME280;5071;52.360;13.134;2023-06-14T07:48:40;101413.63;;;22.06;48.98
10064;BME280;5071;52.360;13.134;2023-06-14T07:53:42;101414.09;;;22.68;49.66
10064;BME280;5071;52.360;13.134;2023-06-14T07:58:46;101408.88;;;22.98;46.27
10064;BME280;5071;52.360;13.134;2023-06-14T08:03:49;101407.91;;;22.12;49.70
10064;BME280;5071;52.360;13.134;2023-06-14T08:08:51;101410.09;;;21.28;51.16
10064;BME280;5071;52.360;13.134;2023-06-14T08:13:54;101405.47;;;20.29;53.80
10064;BME280;5071;52.360;13.134;2023-06-14T08:18:57;101407.94;;;20.13;53.71
10064;BME280;5071;52.360;13.134;2023-06-14T08:23:59;101407.28;;;20.28;54.92
10064;BME280;5071;52.360;13.134;2023-06-14T08:29:02;101406.91;;;20.15;54.55
10064;BME280;5071;52.360;13.134;2023-06-14T08:34:04;101414.19;;;20.13;54.66
10064;BME280;5071;52.360;13.134;2023-06-14T08:39:08;101418.06;;;20.28;53.86
10064;BME280;5071;52.360;13.134;2023-06-14T08:44:11;101409.72;;;20.34;53.89
10064;BME280;5071;52.360;13.134;2023-06-14T08:49:16;101403.59;;;20.51;53.87
10064;BME280;5071;52.360;13.134;2023-06-14T08:54:18;101400.97;;;20.91;53.30
10064;BME280;5071;52.360;13.134;2023-06-14T08:59:22;101400.09;;;21.11;52.27
10064;BME280;5071;52.360;13.134;2023-06-14T09:04:24;101402.66;;;21.14;51.21
10064;BME280;5071;52.360;13.134;2023-06-14T09:09:27;101409.13;;;21.68;50.92
10064;BME280;5071;52.360;13.134;2023-06-14T09:14:30;101410.78;;;24.11;44.10
10064;BME280;5071;52.360;13.134;2023-06-14T09:19:34;101414.31;;;25.74;40.92
10064;BME280;5071;52.360;13.134;2023-06-14T09:24:36;101408.13;;;25.14;40.59
10064;BME280;5071;52.360;13.134;2023-06-14T09:29:39;101418.47;;;24.02;43.25
10064;BME280;5071;52.360;13.134;2023-06-14T09:34:42;101407.56;;;22.72;46.54
10064;BME280;5071;52.360;13.134;2023-06-14T09:39:50;101412.50;;;22.81;45.52
10064;BME280;5071;52.360;13.134;2023-06-14T09:44:55;101411.47;;;22.12;48.80
10064;BME280;5071;52.360;13.134;2023-06-14T09:49:58;101414.25;;;22.30;45.93
10064;BME280;5071;52.360;13.134;2023-06-14T09:55:00;101406.56;;;22.21;46.36
10064;BME280;5071;52.360;13.134;2023-06-14T10:00:13;101411.53;;;22.30;46.95
10064;BME280;5071;52.360;13.134;2023-06-14T10:05:17;101410.97;;;23.11;45.09
10064;BME280;5071;52.360;13.134;2023-06-14T10:10:21;101403.44;;;22.47;46.72
10064;BME280;5071;52.360;13.134;2023-06-14T10:15:29;101396.44;;;23.12;45.32
10064;BME280;5071;52.360;13.134;2023-06-14T10:20:37;101401.44;;;23.19;44.68
10064;BME280;5071;52.360;13.134;2023-06-14T10:25:42;101395.50;;;22.95;44.52
10064;BME280;5071;52.360;13.134;2023-06-14T10:31:06;101396.22;;;23.16;45.73
10064;BME280;5071;52.360;13.134;2023-06-14T10:36:10;101390.28;;;23.57;44.40
10064;BME280;5071;52.360;13.134;2023-06-14T10:41:12;101388.16;;;24.26;42.76
10064;BME280;5071;52.360;13.134;2023-06-14T10:46:17;101387.16;;;24.13;43.10
10064;BME280;5071;52.360;13.134;2023-06-14T10:51:20;101388.38;;;23.91;43.31
10064;BME280;5071;52.360;13.134;2023-06-14T10:56:24;101380.59;;;23.37;43.75
10064;BME280;5071;52.360;13.134;2023-06-14T11:01:41;101381.53;;;23.20;42.42
10064;BME280;5071;52.360;13.134;2023-06-14T11:06:51;101378.91;;;23.35;42.72
10064;BME280;5071;52.360;13.134;2023-06-14T11:11:54;101373.84;;;23.13;44.06
10064;BME280;5071;52.360;13.134;2023-06-14T11:16:59;101360.50;;;23.41;42.34
10064;BME280;5071;52.360;13.134;2023-06-14T11:22:01;101365.38;;;23.19;42.92
10064;BME280;5071;52.360;13.134;2023-06-14T11:27:04;101352.09;;;22.97;44.45
10064;BME280;5071;52.360;13.134;2023-06-14T11:32:08;101348.69;;;23.90;42.76
10064;BME280;5071;52.360;13.134;2023-06-14T11:37:11;101351.09;;;25.29;39.87
10064;BME280;5071;52.360;13.134;2023-06-14T11:42:14;101333.50;;;25.20;39.33
10064;BME280;5071;52.360;13.134;2023-06-14T11:47:18;101335.91;;;25.53;38.57
10064;BME280;5071;52.360;13.134;2023-06-14T11:52:20;101332.72;;;24.60;39.97
10064;BME280;5071;52.360;13.134;2023-06-14T11:57:22;101315.41;;;24.92;39.19
10064;BME280;5071;52.360;13.134;2023-06-14T12:02:26;101312.56;;;25.64;38.73
10064;BME280;5071;52.360;13.134;2023-06-14T12:07:30;101311.47;;;24.38;39.24
10064;BME280;5071;52.360;13.134;2023-06-14T12:12:35;101300.38;;;24.86;38.40
10064;BME280;5071;52.360;13.134;2023-06-14T12:17:39;101306.19;;;25.50;36.67
10064;BME280;5071;52.360;13.134;2023-06-14T12:22:50;101309.75;;;25.09;37.36
10064;BME280;5071;52.360;13.134;2023-06-14T12:27:52;101308.59;;;24.56;38.62
10064;BME280;5071;52.360;13.134;2023-06-14T12:32:56;101307.97;;;24.36;40.62
10064;BME280;5071;52.360;13.134;2023-06-14T12:37:58;101299.13;;;24.02;40.92
10064;BME280;5071;52.360;13.134;2023-06-14T12:43:00;101296.19;;;24.52;40.92
10064;BME280;5071;52.360;13.134;2023-06-14T12:48:04;101303.00;;;24.88;38.00
10064;BME280;5071;52.360;13.134;2023-06-14T12:53:07;101290.34;;;25.30;37.16
10064;BME280;5071;52.360;13.134;2023-06-14T12:58:09;101294.41;;;25.37;36.23
10064;BME280;5071;52.360;13.134;2023-06-14T13:03:13;101278.41;;;25.18;36.21
10064;BME280;5071;52.360;13.134;2023-06-14T13:08:16;101278.03;;;25.78;35.60
10064;BME280;5071;52.360;13.134;2023-06-14T13:13:18;101278.94;;;24.81;36.79
10064;BME280;5071;52.360;13.134;2023-06-14T13:18:22;101283.38;;;26.07;35.11
10064;BME280;5071;52.360;13.134;2023-06-14T13:23:24;101265.72;;;25.73;36.50
10064;BME280;5071;52.360;13.134;2023-06-14T13:28:27;101269.88;;;26.06;34.62
10064;BME280;5071;52.360;13.134;2023-06-14T13:33:31;101247.91;;;26.73;33.09
10064;BME280;5071;52.360;13.134;2023-06-14T13:38:34;101265.94;;;25.97;34.37
10064;BME280;5071;52.360;13.134;2023-06-14T13:43:37;101252.47;;;26.85;33.18
10064;BME280;5071;52.360;13.134;2023-06-14T13:48:40;101250.84;;;26.70;33.41
10064;BME280;5071;52.360;13.134;2023-06-14T13:53:42;101238.88;;;26.21;34.27
10064;BME280;5071;52.360;13.134;2023-06-14T13:58:44;101235.91;;;26.37;33.57
10064;BME280;5071;52.360;13.134;2023-06-14T14:03:48;101238.66;;;27.12;31.82
10064;BME280;5071;52.360;13.134;2023-06-14T14:08:51;101226.94;;;26.99;31.45
10064;BME280;5071;52.360;13.134;2023-06-14T14:13:53;101221.75;;;26.06;32.21
10064;BME280;5071;52.360;13.134;2023-06-14T14:18:57;101220.03;;;26.44;32.42
10064;BME280;5071;52.360;13.134;2023-06-14T14:23:59;101218.59;;;27.13;31.79
10064;BME280;5071;52.360;13.134;2023-06-14T14:29:01;101220.88;;;26.57;32.61
10064;BME280;5071;52.360;13.134;2023-06-14T14:34:05;101213.06;;;26.14;33.48
10064;BME280;5071;52.360;13.134;2023-06-14T14:39:07;101215.59;;;25.37;34.57
10064;BME280;5071;52.360;13.134;2023-06-14T14:44:09;101212.81;;;25.24;34.62
10064;BME280;5071;52.360;13.134;2023-06-14T14:49:13;101216.59;;;24.66;36.17
10064;BME280;5071;52.360;13.134;2023-06-14T14:54:15;101196.31;;;24.86;36.36
10064;BME280;5071;52.360;13.134;2023-06-14T14:59:18;101215.44;;;25.66;36.36
10064;BME280;5071;52.360;13.134;2023-06-14T15:04:21;101204.28;;;25.70;36.18
10064;BME280;5071;52.360;13.134;2023-06-14T15:09:24;101209.47;;;26.13;34.44
10064;BME280;5071;52.360;13.134;2023-06-14T15:14:26;101220.94;;;24.68;35.52
10064;BME280;5071;52.360;13.134;2023-06-14T15:19:30;101224.63;;;24.38;35.23
10064;BME280;5071;52.360;13.134;2023-06-14T15:24:32;101211.81;;;24.26;35.62
10064;BME280;5071;52.360;13.134;2023-06-14T15:29:44;101207.53;;;23.93;36.99
10064;BME280;5071;52.360;13.134;2023-06-14T15:34:51;101212.09;;;23.46;37.29
10064;BME280;5071;52.360;13.134;2023-06-14T15:39:53;101217.09;;;23.22;37.66
10064;BME280;5071;52.360;13.134;2023-06-14T15:44:55;101223.88;;;22.98;38.19
10064;BME280;5071;52.360;13.134;2023-06-14T15:49:58;101221.56;;;23.07;38.03
10064;BME280;5071;52.360;13.134;2023-06-14T15:55:01;101218.03;;;22.89;37.98
10064;BME280;5071;52.360;13.134;2023-06-14T16:00:06;101225.56;;;22.84;38.31
10064;BME280;5071;52.360;13.134;2023-06-14T16:05:10;101218.72;;;22.93;38.98
10064;BME280;5071;52.360;13.134;2023-06-14T16:10:12;101223.22;;;23.10;38.00
10064;BME280;5071;52.360;13.134;2023-06-14T16:15:15;101216.09;;;22.91;38.36
10064;BME280;5071;52.360;13.134;2023-06-14T16:20:19;101216.72;;;22.81;38.47
10064;BME280;5071;52.360;13.134;2023-06-14T16:25:22;101218.19;;;22.70;38.61
10064;BME280;5071;52.360;13.134;2023-06-14T16:30:24;101225.16;;;22.75;38.66
10064;BME280;5071;52.360;13.134;2023-06-14T16:35:28;101225.78;;;22.64;39.42
10064;BME280;5071;52.360;13.134;2023-06-14T16:40:30;101211.63;;;22.75;38.67
10064;BME280;5071;52.360;13.134;2023-06-14T16:45:32;101214.78;;;22.67;39.07
10064;BME280;5071;52.360;13.134;2023-06-14T16:50:36;101225.78;;;22.80;38.32
10064;BME280;5071;52.360;13.134;2023-06-14T16:55:38;101224.94;;;22.79;38.49
10064;BME280;5071;52.360;13.134;2023-06-14T17:00:40;101221.63;;;22.90;39.31
10064;BME280;5071;52.360;13.134;2023-06-14T17:05:55;101235.56;;;22.82;38.20
10064;BME280;5071;52.360;13.134;2023-06-14T17:10:57;101236.19;;;22.71;39.36
10064;BME280;5071;52.360;13.134;2023-06-14T17:16:00;101240.19;;;22.64;39.01
10064;BME280;5071;52.360;13.134;2023-06-14T17:21:04;101243.94;;;22.62;39.43
10064;BME280;5071;52.360;13.134;2023-06-14T17:26:06;101240.94;;;22.50;39.14
10064;BME280;5071;52.360;13.134;2023-06-14T17:31:08;101249.50;;;22.59;39.27
10064;BME280;5071;52.360;13.134;2023-06-14T17:36:11;101258.19;;;22.48;39.38
10064;BME280;5071;52.360;13.134;2023-06-14T17:46:19;101258.69;;;22.39;42.13
10064;BME280;5071;52.360;13.134;2023-06-14T17:51:23;101253.38;;;22.20;40.38
10064;BME280;5071;52.360;13.134;2023-06-14T17:56:26;101259.75;;;22.19;40.51
10064;BME280;5071;52.360;13.134;2023-06-14T18:01:28;101263.00;;;22.08;40.36
10064;BME280;5071;52.360;13.134;2023-06-14T18:06:31;101264.09;;;21.86;42.12
10064;BME280;5071;52.360;13.134;2023-06-14T18:11:33;101268.63;;;21.86;41.18
10064;BME280;5071;52.360;13.134;2023-06-14T18:16:35;101262.19;;;21.71;42.34
10064;BME280;5071;52.360;13.134;2023-06-14T18:21:39;101255.72;;;21.56;42.18
10064;BME280;5071;52.360;13.134;2023-06-14T18:26:41;101262.25;;;21.52;42.34
10064;BME280;5071;52.360;13.134;2023-06-14T18:31:43;101258.75;;;21.50;44.30
10064;BME280;5071;52.360;13.134;2023-06-14T18:36:46;101263.13;;;21.33;43.47
10064;BME280;5071;52.360;13.134;2023-06-14T18:41:48;101268.69;;;20.92;47.70
10064;BME280;5071;52.360;13.134;2023-06-14T18:46:50;101262.84;;;20.23;52.64
10064;BME280;5071;52.360;13.134;2023-06-14T18:51:54;101265.13;;;19.91;50.79
10064;BME280;5071;52.360;13.134;2023-06-14T18:56:56;101265.06;;;19.70;54.48
10064;BME280;5071;52.360;13.134;2023-06-14T19:01:59;101268.38;;;19.78;53.69
10064;BME280;5071;52.360;13.134;2023-06-14T19:07:03;101267.16;;;20.06;51.74
10064;BME280;5071;52.360;13.134;2023-06-14T19:12:07;101269.66;;;19.90;53.58
10064;BME280;5071;52.360;13.134;2023-06-14T19:17:13;101273.59;;;19.81;55.17
10064;BME280;5071;52.360;13.134;2023-06-14T19:22:19;101274.09;;;19.91;52.08
10064;BME280;5071;52.360;13.134;2023-06-14T19:27:21;101281.19;;;20.14;49.63
10064;BME280;5071;52.360;13.134;2023-06-14T19:32:23;101283.31;;;20.06;49.02
10064;BME280;5071;52.360;13.134;2023-06-14T19:37:26;101290.38;;;20.10;49.83
10064;BME280;5071;52.360;13.134;2023-06-14T19:42:28;101282.09;;;19.93;51.78
10064;BME280;5071;52.360;13.134;2023-06-14T19:47:30;101287.41;;;19.74;51.89
10064;BME280;5071;52.360;13.134;2023-06-14T19:52:35;101291.56;;;19.59;51.88
10064;BME280;5071;52.360;13.134;2023-06-14T19:57:37;101291.03;;;19.51;54.35
10064;BME280;5071;52.360;13.134;2023-06-14T20:02:39;101291.44;;;19.40;54.30
10064;BME280;5071;52.360;13.134;2023-06-14T20:07:43;101297.03;;;19.35;57.41
10064;BME280;5071;52.360;13.134;2023-06-14T20:12:45;101293.59;;;19.32;54.92
10064;BME280;5071;52.360;13.134;2023-06-14T20:17:48;101301.00;;;19.25;55.98
10064;BME280;5071;52.360;13.134;2023-06-14T20:22:51;101306.69;;;19.17;56.29
10064;BME280;5071;52.360;13.134;2023-06-14T20:27:53;101303.16;;;19.17;56.67
10064;BME280;5071;52.360;13.134;2023-06-14T20:32:54;101310.47;;;19.13;56.20
10064;BME280;5071;52.360;13.134;2023-06-14T20:37:58;101314.00;;;19.14;56.26
10064;BME280;5071;52.360;13.134;2023-06-14T20:43:01;101301.63;;;19.10;56.34
10064;BME280;5071;52.360;13.134;2023-06-14T20:48:03;101304.31;;;19.33;52.53
10064;BME280;5071;52.360;13.134;2023-06-14T20:53:06;101301.78;;;19.51;51.42
10064;BME280;5071;52.360;13.134;2023-06-14T20:58:08;101310.31;;;19.62;51.98
10064;BME280;5071;52.360;13.134;2023-06-14T21:03:10;101306.53;;;19.66;51.17
10064;BME280;5071;52.360;13.134;2023-06-14T21:08:13;101299.38;;;19.65;50.14
10064;BME280;5071;52.360;13.134;2023-06-14T21:13:16;101300.69;;;19.78;50.87
10064;BME280;5071;52.360;13.134;2023-06-14T21:18:18;101308.09;;;19.73;50.57
10064;BME280;5071;52.360;13.134;2023-06-14T21:23:21;101305.69;;;19.66;50.61
10064;BME280;5071;52.360;13.134;2023-06-14T21:28:23;101307.56;;;19.64;49.92
10064;BME280;5071;52.360;13.134;2023-06-14T21:33:25;101306.53;;;19.66;51.80
10064;BME280;5071;52.360;13.134;2023-06-14T21:38:29;101296.63;;;19.67;50.03
10064;BME280;5071;52.360;13.134;2023-06-14T21:43:31;101304.44;;;19.74;49.57
10064;BME280;5071;52.360;13.134;2023-06-14T21:48:33;101297.91;;;19.58;50.54
10064;BME280;5071;52.360;13.134;2023-06-14T21:53:37;101299.22;;;19.48;51.64
10064;BME280;5071;52.360;13.134;2023-06-14T21:58:38;101298.28;;;19.27;52.62
10064;BME280;5071;52.360;13.134;2023-06-14T22:03:40;101304.25;;;19.11;51.83
10064;BME280;5071;52.360;13.134;2023-06-14T22:08:43;101302.63;;;19.07;52.55
10064;BME280;5071;52.360;13.134;2023-06-14T22:13:46;101292.63;;;19.11;53.48
10064;BME280;5071;52.360;13.134;2023-06-14T22:18:48;101295.63;;;19.25;50.62
10064;BME280;5071;52.360;13.134;2023-06-14T22:23:52;101289.44;;;19.23;50.78
10064;BME280;5071;52.360;13.134;2023-06-14T22:28:54;101295.88;;;19.19;51.26
10064;BME280;5071;52.360;13.134;2023-06-14T22:33:56;101295.31;;;18.87;52.81
10064;BME280;5071;52.360;13.134;2023-06-14T22:38:59;101296.31;;;18.59;53.63
10064;BME280;5071;52.360;13.134;2023-06-14T22:44:02;101294.47;;;18.36;54.88
10064;BME280;5071;52.360;13.134;2023-06-14T22:49:04;101300.22;;;18.25;56.15
10064;BME280;5071;52.360;13.134;2023-06-14T22:54:07;101287.13;;;18.41;54.50
10064;BME280;5071;52.360;13.134;2023-06-14T22:59:09;101291.53;;;18.19;55.51
10064;BME280;5071;52.360;13.134;2023-06-14T23:04:11;101292.47;;;18.16;55.95
10064;BME280;5071;52.360;13.134;2023-06-14T23:09:15;101289.34;;;18.03;55.53
10064;BME280;5071;52.360;13.134;2023-06-14T23:14:17;101289.44;;;18.02;55.19
10064;BME280;5071;52.360;13.134;2023-06-14T23:19:20;101289.69;;;18.19;54.21
10064;BME280;5071;52.360;13.134;2023-06-14T23:24:23;101287.97;;;18.17;55.33
10064;BME280;5071;52.360;13.134;2023-06-14T23:29:25;101280.72;;;17.94;55.94
10064;BME280;5071;52.360;13.134;2023-06-14T23:34:27;101283.00;;;17.79;56.43
10064;BME280;5071;52.360;13.134;2023-06-14T23:39:31;101282.13;;;17.51;57.78
10064;BME280;5071;52.360;13.134;2023-06-14T23:44:33;101283.66;;;17.31;57.74
10064;BME280;5071;52.360;13.134;2023-06-14T23:49:35;101271.22;;;17.28;57.99
10064;BME280;5071;52.360;13.134;2023-06-14T23:54:39;101274.66;;;17.04;59.27
10064;BME280;5071;52.360;13.134;2023-06-14T23:59:40;101280.78;;;16.78;60.09
